Wilmer, Alabama
Current Conditions -  °F | °C
As of 4:56 PM on Wednesday 26 Nov 2014 (Local Time) from KMOB Reporting Station
Few Clouds Few Clouds  
Wind Chill: 53°   Ceiling: Unl
Heat Index: 53°   Visibility: 10mi
Dew Point: 35°   Wind: 9mph
Humidity: 50%   Direction: 220°SW
Pressure: 30.18"   Gusts: NA
Location:  30.83°N, 88.36°W
Report Text: KMOB 262256Z 22008KT 10SM FEW100 12/02 A3018 RMK AO2 SLP218 T01170017
Loading
Personal Weather Stations






























Interactive Weather Map New forecast layout! Learn more

10-Day Weather Forecast

Advertisements
Track Severe Weather on mobile